createdAt,value
2022-07-31T00:00:22.085Z,2.03
2022-07-31T00:02:51.881Z,2.20
2022-07-31T00:05:21.837Z,2.25
2022-07-31T00:07:51.920Z,2.13
2022-07-31T00:10:21.731Z,2.47
2022-07-31T00:12:54.620Z,2.40
2022-07-31T00:15:24.725Z,2.20
2022-07-31T00:17:54.481Z,2.70
2022-07-31T00:20:24.250Z,2.30
2022-07-31T00:22:54.963Z,2.63
2022-07-31T00:25:24.701Z,2.20
2022-07-31T00:27:57.031Z,2.42
2022-07-31T00:30:26.968Z,2.53
2022-07-31T00:32:56.676Z,2.70
2022-07-31T00:35:26.592Z,2.60
2022-07-31T00:38:24.785Z,2.22
2022-07-31T00:40:50.386Z,2.65
2022-07-31T00:43:22.679Z,2.33
2022-07-31T00:45:59.141Z,2.40
2022-07-31T00:48:29.835Z,2.20
2022-07-31T00:50:59.878Z,2.20
2022-07-31T00:53:29.615Z,2.47
2022-07-31T00:55:59.940Z,2.22
2022-07-31T00:58:32.367Z,2.42
2022-07-31T01:01:02.111Z,2.45
2022-07-31T01:03:31.896Z,2.67
2022-07-31T01:06:01.851Z,2.40
2022-07-31T01:08:31.786Z,2.72
2022-07-31T01:11:08.316Z,2.38
2022-07-31T01:13:49.418Z,2.67
2022-07-31T01:16:21.249Z,2.25
2022-07-31T01:18:52.542Z,2.45
2022-07-31T01:21:30.227Z,2.40
2022-07-31T01:24:30.084Z,2.58
2022-07-31T01:27:04.965Z,2.50
2022-07-31T01:29:43.782Z,2.45
2022-07-31T01:32:17.840Z,2.70
2022-07-31T01:34:55.622Z,2.78
2022-07-31T01:37:30.474Z,2.50
2022-07-31T01:40:06.284Z,2.50
2022-07-31T01:42:39.619Z,2.13
2022-07-31T01:45:14.510Z,2.40
2022-07-31T01:47:45.944Z,2.38
2022-07-31T01:50:42.483Z,2.45
2022-07-31T01:53:06.768Z,2.38
2022-07-31T01:56:03.796Z,2.55
2022-07-31T01:58:30.641Z,2.75
2022-07-31T02:01:05.900Z,2.78
2022-07-31T02:03:44.510Z,2.78
2022-07-31T02:06:17.760Z,2.65
2022-07-31T02:08:49.072Z,2.70
2022-07-31T02:11:21.658Z,2.72
2022-07-31T02:13:53.407Z,2.80
2022-07-31T02:16:27.593Z,2.97
2022-07-31T02:19:00.248Z,2.92
2022-07-31T02:21:30.195Z,2.88
2022-07-31T02:24:00.241Z,2.60
2022-07-31T02:26:32.231Z,3.03
2022-07-31T02:29:02.953Z,3.33
2022-07-31T02:31:37.918Z,2.88
2022-07-31T02:34:08.049Z,2.53
2022-07-31T02:36:38.845Z,2.58
2022-07-31T02:39:09.292Z,2.95
2022-07-31T02:41:39.361Z,3.00
2022-07-31T02:44:09.382Z,3.10
2022-07-31T02:46:42.509Z,3.15
2022-07-31T02:49:14.023Z,2.60
2022-07-31T02:51:44.474Z,3.40
2022-07-31T02:54:16.033Z,2.85
2022-07-31T02:56:46.823Z,2.85
2022-07-31T02:59:16.552Z,2.70
2022-07-31T03:01:48.891Z,2.42
2022-07-31T03:04:18.673Z,2.70
2022-07-31T03:06:48.710Z,2.90
2022-07-31T03:09:18.482Z,3.20
2022-07-31T03:11:48.232Z,2.70
2022-07-31T03:14:18.950Z,2.60
2022-07-31T03:16:52.855Z,2.60
2022-07-31T03:19:23.912Z,2.50
2022-07-31T03:21:54.378Z,3.00
2022-07-31T03:24:24.092Z,2.80
2022-07-31T03:26:53.821Z,2.80
2022-07-31T03:29:41.721Z,2.83
2022-07-31T03:32:15.854Z,2.85
2022-07-31T03:34:45.557Z,3.10
2022-07-31T03:37:15.889Z,2.70
2022-07-31T03:39:45.629Z,2.80
2022-07-31T03:42:18.884Z,2.85
2022-07-31T03:44:50.483Z,2.67
2022-07-31T03:47:22.823Z,2.65
2022-07-31T03:49:52.744Z,2.70
2022-07-31T03:52:22.470Z,2.55
2022-07-31T03:54:52.366Z,2.85
2022-07-31T03:57:27.002Z,2.80
2022-07-31T04:00:00.742Z,2.85
2022-07-31T04:02:33.648Z,3.05
2022-07-31T04:05:08.069Z,2.80
2022-07-31T04:07:39.565Z,3.08
2022-07-31T04:10:10.779Z,3.00
2022-07-31T04:12:40.510Z,2.75
2022-07-31T04:15:10.936Z,3.30
2022-07-31T04:17:43.275Z,2.97
2022-07-31T04:20:14.104Z,3.55
2022-07-31T04:22:43.868Z,2.97
2022-07-31T04:25:13.582Z,3.25
2022-07-31T04:27:48.200Z,3.00
2022-07-31T04:30:18.990Z,3.35
2022-07-31T04:32:51.332Z,3.10
2022-07-31T04:35:22.300Z,3.38
2022-07-31T04:37:52.040Z,3.80
2022-07-31T04:40:21.853Z,3.25
2022-07-31T04:42:51.568Z,3.30
2022-07-31T04:45:21.470Z,3.30
2022-07-31T04:47:53.818Z,3.90
2022-07-31T04:50:23.793Z,3.53
2022-07-31T04:52:53.492Z,3.45
2022-07-31T04:55:24.431Z,3.35
2022-07-31T04:57:54.140Z,3.03
2022-07-31T05:00:24.033Z,3.00
2022-07-31T05:02:56.367Z,3.10
2022-07-31T05:05:26.267Z,3.30
2022-07-31T05:07:55.996Z,3.70
2022-07-31T05:10:38.327Z,3.33
2022-07-31T05:13:08.020Z,3.28
2022-07-31T05:15:37.739Z,3.55
2022-07-31T05:18:10.473Z,3.28
2022-07-31T05:20:40.221Z,4.03
2022-07-31T05:23:09.892Z,3.63
2022-07-31T05:25:39.610Z,3.10
2022-07-31T05:28:09.856Z,4.25
2022-07-31T05:30:39.888Z,4.85
2022-07-31T05:33:12.221Z,4.03
2022-07-31T05:35:43.645Z,3.35
2022-07-31T05:38:13.339Z,3.80
2022-07-31T05:40:43.055Z,3.20
2022-07-31T05:43:13.337Z,3.78
2022-07-31T05:45:43.080Z,3.38
2022-07-31T05:48:15.426Z,2.97
2022-07-31T05:50:45.775Z,3.58
2022-07-31T05:53:16.152Z,3.90
2022-07-31T05:55:46.604Z,3.50
2022-07-31T05:58:17.277Z,3.67
2022-07-31T06:00:48.582Z,3.33
2022-07-31T06:03:27.970Z,3.22
2022-07-31T06:05:58.618Z,3.33
2022-07-31T06:08:29.253Z,3.70
2022-07-31T06:10:59.310Z,3.53
2022-07-31T06:13:30.385Z,3.78
2022-07-31T06:16:00.124Z,2.90
2022-07-31T06:18:32.443Z,3.40
2022-07-31T06:21:02.716Z,3.42
2022-07-31T06:23:32.526Z,3.03
2022-07-31T06:26:02.562Z,3.33
2022-07-31T06:28:48.489Z,3.42
2022-07-31T06:31:20.562Z,3.30
2022-07-31T06:33:53.444Z,3.20
2022-07-31T06:36:23.740Z,3.50
2022-07-31T06:38:53.451Z,4.13
2022-07-31T06:41:35.619Z,3.78
2022-07-31T06:44:05.893Z,3.40
2022-07-31T06:46:35.620Z,3.97
2022-07-31T06:49:09.089Z,3.65
2022-07-31T06:51:39.191Z,4.72
2022-07-31T06:54:11.505Z,3.67
2022-07-31T06:56:42.127Z,3.65
2022-07-31T06:59:11.929Z,3.90
2022-07-31T07:01:41.723Z,3.38
2022-07-31T07:04:14.241Z,3.70
2022-07-31T07:06:44.007Z,3.33
2022-07-31T07:09:13.778Z,4.50
2022-07-31T07:11:43.622Z,4.40
2022-07-31T07:14:13.421Z,3.30
2022-07-31T07:16:43.350Z,3.20
2022-07-31T07:19:15.660Z,3.97
2022-07-31T07:21:45.382Z,4.63
2022-07-31T07:24:15.129Z,3.50
2022-07-31T07:26:44.861Z,3.35
2022-07-31T07:29:14.606Z,3.70
2022-07-31T07:31:44.363Z,3.65
2022-07-31T07:34:16.671Z,4.22
2022-07-31T07:36:46.399Z,4.13
2022-07-31T07:39:16.126Z,4.13
2022-07-31T07:41:45.917Z,3.92
2022-07-31T07:44:15.632Z,4.25
2022-07-31T07:46:45.435Z,6.75
2022-07-31T07:49:17.896Z,4.55
2022-07-31T07:51:58.801Z,3.90
2022-07-31T07:54:37.385Z,4.28
2022-07-31T07:57:07.121Z,4.13
2022-07-31T07:59:36.847Z,4.10
2022-07-31T08:02:06.950Z,5.20
2022-07-31T08:04:39.579Z,4.25
2022-07-31T08:07:09.420Z,4.20
2022-07-31T08:09:40.210Z,4.85
2022-07-31T08:12:10.347Z,4.82
2022-07-31T08:14:40.072Z,4.72
2022-07-31T08:17:14.249Z,5.13
2022-07-31T08:19:50.935Z,4.75
2022-07-31T08:22:21.099Z,4.70
2022-07-31T08:24:50.829Z,4.63
2022-07-31T08:27:39.439Z,5.10
2022-07-31T08:30:11.985Z,5.72
2022-07-31T08:32:41.992Z,5.47
2022-07-31T08:35:15.029Z,6.00
2022-07-31T08:38:01.629Z,6.18
2022-07-31T08:40:42.688Z,4.95
2022-07-31T08:44:00.259Z,6.25
2022-07-31T08:46:05.445Z,5.75
2022-07-31T08:48:35.963Z,5.57
2022-07-31T08:51:09.623Z,5.43
2022-07-31T08:53:40.014Z,5.40
2022-07-31T08:56:12.064Z,5.38
2022-07-31T08:58:41.935Z,6.65
2022-07-31T09:01:14.170Z,5.93
2022-07-31T09:03:43.934Z,6.70
2022-07-31T09:06:16.368Z,7.20
2022-07-31T09:08:46.261Z,6.97
2022-07-31T09:11:18.764Z,6.82
2022-07-31T09:14:14.318Z,6.72
2022-07-31T09:16:51.769Z,7.13
2022-07-31T09:19:52.351Z,8.13
2022-07-31T09:22:22.654Z,7.47
2022-07-31T09:24:52.491Z,7.55
2022-07-31T09:27:22.492Z,7.95
2022-07-31T09:29:52.955Z,8.43
2022-07-31T09:32:23.999Z,9.68
2022-07-31T09:34:53.696Z,8.63
2022-07-31T09:37:28.925Z,10.82
2022-07-31T09:39:59.282Z,10.75
2022-07-31T09:42:39.447Z,10.00
2022-07-31T09:45:23.138Z,9.65
2022-07-31T09:48:08.337Z,9.95
2022-07-31T09:50:38.225Z,9.60
2022-07-31T09:53:10.548Z,10.60
2022-07-31T09:55:40.276Z,10.20
2022-07-31T09:58:09.995Z,9.52
2022-07-31T10:00:40.492Z,11.88
2022-07-31T10:03:10.915Z,13.35
2022-07-31T10:05:40.740Z,11.93
2022-07-31T10:08:14.915Z,11.00
2022-07-31T10:10:46.795Z,9.25
2022-07-31T10:13:18.418Z,11.60
2022-07-31T10:15:50.061Z,10.63
2022-07-31T10:18:36.043Z,12.07
2022-07-31T10:21:09.281Z,12.98
2022-07-31T10:23:44.032Z,10.60
2022-07-31T10:26:14.202Z,14.82
2022-07-31T10:28:44.545Z,13.02
2022-07-31T10:31:15.676Z,13.65
2022-07-31T10:33:47.718Z,14.73
2022-07-31T10:36:22.636Z,14.27
2022-07-31T10:39:04.346Z,12.40
2022-07-31T10:41:49.797Z,13.93
2022-07-31T10:44:26.106Z,13.32
2022-07-31T10:46:56.008Z,10.85
2022-07-31T10:49:44.114Z,15.93
2022-07-31T10:52:15.497Z,13.38
2022-07-31T10:54:49.782Z,15.13
2022-07-31T10:57:26.452Z,12.60
2022-07-31T10:59:56.881Z,13.15
2022-07-31T11:02:34.059Z,13.18
2022-07-31T11:05:11.790Z,12.55
2022-07-31T11:07:43.000Z,12.02
2022-07-31T11:10:21.004Z,13.95
2022-07-31T11:13:02.192Z,11.88
2022-07-31T11:15:31.979Z,9.80
2022-07-31T11:18:25.195Z,12.25
2022-07-31T11:21:17.394Z,14.38
2022-07-31T11:24:02.723Z,12.73
2022-07-31T11:26:41.941Z,11.45
2022-07-31T11:29:59.846Z,10.77
2022-07-31T11:32:15.501Z,15.52
2022-07-31T11:34:53.711Z,10.48
2022-07-31T11:37:43.329Z,11.75
2022-07-31T11:40:17.445Z,8.88
2022-07-31T11:43:10.320Z,12.23
2022-07-31T11:45:49.912Z,11.13
2022-07-31T11:48:20.854Z,11.10
2022-07-31T11:50:52.040Z,11.27
2022-07-31T11:53:24.066Z,12.38
2022-07-31T11:56:04.240Z,12.02
2022-07-31T11:58:36.775Z,10.50
2022-07-31T12:01:08.087Z,12.02
2022-07-31T12:03:40.133Z,10.27
2022-07-31T12:06:11.674Z,10.95
2022-07-31T12:08:42.978Z,10.13
2022-07-31T12:11:14.420Z,10.25
2022-07-31T12:13:48.829Z,11.45
2022-07-31T12:16:19.213Z,10.93
2022-07-31T12:18:50.764Z,10.82
2022-07-31T12:21:21.353Z,12.25
2022-07-31T12:23:53.326Z,9.25
2022-07-31T12:26:27.473Z,9.50
2022-07-31T12:29:05.213Z,8.52
2022-07-31T12:31:47.836Z,11.57
2022-07-31T12:34:29.436Z,8.23
2022-07-31T12:37:04.124Z,9.18
2022-07-31T12:39:50.766Z,10.15
2022-07-31T12:42:30.743Z,9.73
2022-07-31T12:45:18.270Z,9.82
2022-07-31T12:47:52.376Z,9.57
2022-07-31T12:50:22.577Z,10.80
2022-07-31T12:52:52.447Z,7.90
2022-07-31T12:55:22.659Z,6.15
2022-07-31T12:57:52.526Z,6.10
2022-07-31T13:00:26.977Z,5.90
2022-07-31T13:02:58.161Z,4.80
2022-07-31T13:05:29.651Z,5.38
2022-07-31T13:07:59.802Z,3.90
2022-07-31T13:10:32.309Z,3.95
2022-07-31T13:13:02.350Z,3.58
2022-07-31T13:15:34.672Z,3.92
2022-07-31T13:18:05.203Z,4.00
2022-07-31T13:20:35.129Z,4.45
2022-07-31T13:23:05.393Z,4.13
2022-07-31T13:25:35.253Z,4.43
2022-07-31T13:28:04.968Z,3.83
2022-07-31T13:30:37.371Z,2.60
2022-07-31T13:33:07.253Z,2.75
2022-07-31T13:35:37.024Z,2.80
2022-07-31T13:38:06.897Z,2.65
2022-07-31T13:40:49.062Z,2.67
2022-07-31T13:43:18.863Z,2.90
2022-07-31T13:45:51.658Z,2.95
2022-07-31T13:48:21.438Z,3.28
2022-07-31T13:50:51.122Z,2.88
2022-07-31T13:53:20.869Z,3.10
2022-07-31T13:55:50.624Z,2.40
2022-07-31T13:58:20.587Z,2.70
2022-07-31T14:00:54.379Z,2.90
2022-07-31T14:03:24.539Z,3.60
2022-07-31T14:05:56.135Z,3.38
2022-07-31T14:08:33.248Z,3.47
2022-07-31T14:11:16.289Z,3.30
2022-07-31T14:13:46.741Z,4.07
2022-07-31T14:16:19.480Z,2.90
2022-07-31T14:18:49.482Z,3.00
2022-07-31T14:21:19.215Z,2.92
2022-07-31T14:23:49.452Z,3.35
2022-07-31T14:26:19.209Z,3.67
2022-07-31T14:28:49.683Z,3.25
2022-07-31T14:31:22.074Z,4.43
2022-07-31T14:33:51.782Z,4.10
2022-07-31T14:36:21.506Z,4.57
2022-07-31T14:38:51.233Z,4.00
2022-07-31T14:41:21.000Z,4.22
2022-07-31T14:43:50.754Z,4.40
2022-07-31T14:46:23.112Z,4.05
2022-07-31T14:48:52.916Z,3.35
2022-07-31T14:51:23.195Z,2.85
2022-07-31T14:53:52.934Z,2.58
2022-07-31T14:56:39.666Z,2.50
2022-07-31T14:59:12.559Z,2.30
2022-07-31T15:01:45.085Z,2.10
2022-07-31T15:04:14.876Z,3.03
2022-07-31T15:06:56.239Z,3.13
2022-07-31T15:09:34.612Z,3.13
2022-07-31T15:12:04.348Z,3.47
2022-07-31T15:14:34.172Z,3.42
2022-07-31T15:17:06.714Z,3.70
2022-07-31T15:19:36.724Z,3.80
2022-07-31T15:22:11.272Z,3.25
2022-07-31T15:24:49.306Z,3.78
2022-07-31T15:27:21.822Z,3.72
2022-07-31T15:30:04.146Z,4.05
2022-07-31T15:32:41.478Z,4.75
2022-07-31T15:35:14.314Z,3.97
2022-07-31T15:37:46.997Z,3.42
2022-07-31T15:40:17.879Z,4.90
2022-07-31T15:42:50.024Z,4.05
2022-07-31T15:45:22.142Z,3.40
2022-07-31T15:47:54.457Z,2.92
2022-07-31T15:50:24.280Z,2.30
2022-07-31T15:52:53.996Z,2.58
2022-07-31T15:55:23.715Z,1.75
2022-07-31T15:57:53.507Z,1.83
2022-07-31T16:00:23.491Z,1.60
2022-07-31T16:02:55.796Z,1.80
2022-07-31T16:05:36.210Z,2.10
2022-07-31T16:08:29.338Z,2.33
2022-07-31T16:11:00.721Z,2.22
2022-07-31T16:13:31.547Z,2.70
2022-07-31T16:16:01.333Z,2.30
2022-07-31T16:18:33.758Z,2.33
2022-07-31T16:21:03.501Z,3.13
2022-07-31T16:23:33.222Z,3.47
2022-07-31T16:26:02.939Z,3.42
2022-07-31T16:28:32.731Z,3.80
2022-07-31T16:31:02.616Z,2.67
2022-07-31T16:33:35.014Z,2.92
2022-07-31T16:36:04.728Z,2.42
2022-07-31T16:38:34.462Z,2.20
2022-07-31T16:41:04.191Z,1.50
2022-07-31T16:43:50.021Z,1.33
2022-07-31T16:46:21.304Z,1.10
2022-07-31T16:48:53.713Z,0.88
2022-07-31T16:51:23.501Z,1.33
2022-07-31T16:54:13.590Z,1.30
2022-07-31T16:56:42.925Z,1.30
2022-07-31T16:59:12.853Z,1.00
2022-07-31T17:02:00.187Z,1.25
2022-07-31T17:04:33.315Z,1.42
2022-07-31T17:07:03.711Z,1.50
2022-07-31T17:09:33.863Z,0.85
2022-07-31T17:12:04.450Z,1.25
2022-07-31T17:14:34.403Z,1.17
2022-07-31T17:17:04.315Z,0.85
2022-07-31T17:19:45.380Z,0.82
2022-07-31T17:22:17.732Z,0.90
2022-07-31T17:24:51.070Z,0.90
2022-07-31T17:27:22.678Z,0.65
2022-07-31T17:29:52.427Z,0.60
2022-07-31T17:32:22.160Z,0.45
2022-07-31T17:34:54.514Z,0.90
2022-07-31T17:37:24.751Z,0.90
2022-07-31T17:39:57.766Z,0.80
2022-07-31T17:42:28.596Z,1.00
2022-07-31T17:44:59.067Z,0.90
2022-07-31T17:47:30.165Z,0.88
2022-07-31T17:50:02.544Z,1.00
2022-07-31T17:52:32.273Z,0.98
2022-07-31T17:55:02.088Z,0.80
2022-07-31T17:57:33.961Z,0.80
2022-07-31T18:00:04.099Z,0.77
2022-07-31T18:02:34.001Z,0.70
2022-07-31T18:05:06.851Z,0.90
2022-07-31T18:07:37.831Z,0.82
2022-07-31T18:10:09.266Z,0.80
2022-07-31T18:12:57.356Z,0.88
2022-07-31T18:15:35.791Z,1.05
2022-07-31T18:18:06.011Z,0.77
2022-07-31T18:20:38.561Z,0.80
2022-07-31T18:23:10.153Z,0.80
2022-07-31T18:25:40.181Z,0.90
2022-07-31T18:28:09.919Z,0.90
2022-07-31T18:30:41.903Z,1.08
2022-07-31T18:33:13.929Z,1.15
2022-07-31T18:35:46.433Z,1.08
2022-07-31T18:38:17.183Z,0.90
2022-07-31T18:40:47.117Z,1.02
2022-07-31T18:43:16.856Z,1.58
2022-07-31T18:45:46.588Z,1.60
2022-07-31T18:48:16.571Z,1.58
2022-07-31T18:50:59.132Z,1.60
2022-07-31T18:53:33.861Z,1.88
2022-07-31T18:56:03.640Z,1.67
2022-07-31T18:58:33.571Z,1.60
2022-07-31T19:01:03.412Z,1.40
2022-07-31T19:03:33.231Z,1.40
2022-07-31T19:06:05.983Z,0.90
2022-07-31T19:08:35.749Z,1.20
2022-07-31T19:11:05.483Z,1.13
2022-07-31T19:13:35.450Z,1.15
2022-07-31T19:16:05.174Z,0.90
2022-07-31T19:18:36.688Z,0.88
2022-07-31T19:21:23.523Z,0.73
2022-07-31T19:23:59.048Z,0.30
2022-07-31T19:26:28.764Z,0.20
2022-07-31T19:28:58.547Z,0.20
2022-07-31T19:31:28.297Z,0.20
2022-07-31T19:33:58.004Z,0.30
2022-07-31T19:36:30.397Z,0.13
2022-07-31T19:39:00.275Z,0.38
2022-07-31T19:41:30.065Z,0.30
2022-07-31T19:44:02.581Z,0.30
2022-07-31T19:46:32.370Z,0.40
2022-07-31T19:49:02.965Z,0.30
2022-07-31T19:51:35.348Z,0.50
2022-07-31T19:54:05.087Z,0.70
2022-07-31T19:56:34.841Z,0.70
2022-07-31T19:59:05.539Z,0.80
2022-07-31T20:01:35.363Z,0.98
2022-07-31T20:04:05.153Z,0.75
2022-07-31T20:06:39.184Z,0.80
2022-07-31T20:09:08.940Z,0.80
2022-07-31T20:11:38.652Z,1.10
2022-07-31T20:14:08.372Z,1.10
2022-07-31T20:16:38.393Z,1.13
2022-07-31T20:19:08.150Z,1.20
2022-07-31T20:21:40.538Z,1.30
2022-07-31T20:24:11.640Z,1.30
2022-07-31T20:26:41.432Z,1.83
2022-07-31T20:29:11.142Z,2.13
2022-07-31T20:31:40.849Z,3.00
2022-07-31T20:34:10.961Z,3.35
2022-07-31T20:36:43.714Z,3.20
2022-07-31T20:39:13.418Z,4.22
2022-07-31T20:41:43.147Z,3.92
2022-07-31T20:44:12.953Z,3.63
2022-07-31T20:46:42.726Z,4.32
2022-07-31T20:49:19.743Z,3.58
2022-07-31T20:52:08.016Z,3.97
2022-07-31T20:54:38.087Z,3.83
2022-07-31T20:57:08.167Z,4.13
2022-07-31T20:59:37.892Z,4.50
2022-07-31T21:02:07.942Z,4.32
2022-07-31T21:04:37.835Z,4.53
2022-07-31T21:07:10.163Z,4.72
2022-07-31T21:09:41.103Z,3.97
2022-07-31T21:12:11.955Z,4.20
2022-07-31T21:14:41.736Z,4.47
2022-07-31T21:17:11.483Z,3.50
2022-07-31T21:19:41.197Z,4.18
2022-07-31T21:22:13.496Z,4.43
2022-07-31T21:24:43.825Z,4.47
2022-07-31T21:27:15.246Z,4.00
2022-07-31T21:29:45.556Z,5.30
2022-07-31T21:32:16.408Z,5.00
2022-07-31T21:34:46.693Z,5.28
2022-07-31T21:37:20.148Z,5.22
2022-07-31T21:39:53.326Z,4.78
2022-07-31T21:42:23.855Z,3.88
2022-07-31T21:44:55.943Z,4.55
2022-07-31T21:47:27.233Z,4.60
2022-07-31T21:50:28.594Z,4.75
2022-07-31T21:53:01.535Z,4.90
2022-07-31T21:55:31.244Z,5.10
2022-07-31T21:58:00.962Z,4.15
2022-07-31T22:00:30.713Z,4.13
2022-07-31T22:03:00.455Z,3.30
2022-07-31T22:05:42.592Z,3.78
2022-07-31T22:08:16.106Z,3.20
2022-07-31T22:10:46.181Z,3.20
2022-07-31T22:13:15.928Z,3.50
2022-07-31T22:15:52.596Z,3.17
2022-07-31T22:18:31.032Z,3.72
2022-07-31T22:21:01.207Z,3.65
2022-07-31T22:23:34.170Z,3.42
2022-07-31T22:26:04.548Z,4.20
2022-07-31T22:28:34.833Z,3.33
2022-07-31T22:31:05.100Z,3.38
2022-07-31T22:33:34.973Z,2.40
2022-07-31T22:36:07.225Z,2.08
2022-07-31T22:38:39.996Z,1.70
2022-07-31T22:41:12.320Z,1.80
2022-07-31T22:44:14.095Z,1.52
2022-07-31T22:46:33.449Z,2.00
2022-07-31T22:49:04.880Z,1.80
2022-07-31T22:51:38.432Z,1.38
2022-07-31T22:54:11.288Z,1.85
2022-07-31T22:56:41.041Z,1.60
2022-07-31T22:59:10.773Z,1.88
2022-07-31T23:01:40.519Z,2.05
2022-07-31T23:04:10.231Z,1.90
2022-07-31T23:06:39.954Z,2.00
2022-07-31T23:09:12.304Z,2.17
2022-07-31T23:11:43.150Z,1.80
2022-07-31T23:14:13.109Z,2.30
2022-07-31T23:16:42.925Z,2.08
2022-07-31T23:19:12.824Z,1.80
2022-07-31T23:21:51.604Z,1.95
2022-07-31T23:24:23.960Z,2.35
2022-07-31T23:26:53.690Z,2.55
2022-07-31T23:29:23.461Z,2.20
2022-07-31T23:31:53.284Z,2.10
2022-07-31T23:34:23.009Z,2.28
2022-07-31T23:36:52.719Z,2.38
2022-07-31T23:39:25.068Z,2.47
2022-07-31T23:42:07.653Z,1.92
2022-07-31T23:44:39.807Z,1.38
2022-07-31T23:47:10.819Z,1.30
2022-07-31T23:49:45.688Z,1.33
2022-07-31T23:52:15.417Z,1.60
2022-07-31T23:54:47.782Z,2.13
2022-07-31T23:57:17.569Z,2.10
2022-07-31T23:59:47.289Z,2.72
